sensor_id;sensor_type;location;lat;lon;timestamp;pressure;altitude;pressure_sealevel;temperature;humidity
51067;BME280;37112;45.892;-123.962;2023-04-20T00:01:22;102337.71;;;12.22;62.72
51067;BME280;37112;45.892;-123.962;2023-04-20T00:04:02;102337.05;;;12.28;62.95
51067;BME280;37112;45.892;-123.962;2023-04-20T00:06:36;102339.31;;;12.29;62.14
51067;BME280;37112;45.892;-123.962;2023-04-20T00:12:17;102339.80;;;12.12;61.44
51067;BME280;37112;45.892;-123.962;2023-04-20T00:14:51;102342.64;;;12.05;61.66
51067;BME280;37112;45.892;-123.962;2023-04-20T00:17:25;102343.36;;;12.05;62.08
51067;BME280;37112;45.892;-123.962;2023-04-20T00:19:47;102341.50;;;12.07;61.16
51067;BME280;37112;45.892;-123.962;2023-04-20T00:22:25;102346.86;;;11.83;60.77
51067;BME280;37112;45.892;-123.962;2023-04-20T00:25:22;102346.88;;;11.59;61.54
51067;BME280;37112;45.892;-123.962;2023-04-20T00:28:17;102354.33;;;11.36;62.07
51067;BME280;37112;45.892;-123.962;2023-04-20T00:30:43;102355.34;;;11.21;62.34
51067;BME280;37112;45.892;-123.962;2023-04-20T00:33:21;102362.42;;;11.06;62.62
51067;BME280;37112;45.892;-123.962;2023-04-20T00:39:09;102365.55;;;10.74;62.87
51067;BME280;37112;45.892;-123.962;2023-04-20T00:41:50;102372.80;;;10.54;63.28
51067;BME280;37112;45.892;-123.962;2023-04-20T00:44:47;102380.50;;;10.16;64.23
51067;BME280;37112;45.892;-123.962;2023-04-20T00:47:40;102381.23;;;9.83;66.17
51067;BME280;37112;45.892;-123.962;2023-04-20T00:50:16;102388.88;;;9.69;66.68
51067;BME280;37112;45.892;-123.962;2023-04-20T00:53:15;102387.73;;;9.56;66.80
51067;BME280;37112;45.892;-123.962;2023-04-20T00:55:53;102386.05;;;9.49;67.29
51067;BME280;37112;45.892;-123.962;2023-04-20T00:58:36;102385.52;;;9.54;67.95
51067;BME280;37112;45.892;-123.962;2023-04-20T01:01:06;102386.75;;;9.73;68.76
51067;BME280;37112;45.892;-123.962;2023-04-20T01:03:48;102385.54;;;9.87;68.46
51067;BME280;37112;45.892;-123.962;2023-04-20T01:06:23;102380.70;;;9.97;68.13
51067;BME280;37112;45.892;-123.962;2023-04-20T01:12:08;102385.44;;;10.08;67.70
51067;BME280;37112;45.892;-123.962;2023-04-20T01:14:42;102391.38;;;10.19;68.39
51067;BME280;37112;45.892;-123.962;2023-04-20T01:17:08;102395.68;;;10.23;68.01
51067;BME280;37112;45.892;-123.962;2023-04-20T01:19:43;102397.27;;;10.24;67.87
51067;BME280;37112;45.892;-123.962;2023-04-20T01:22:24;102401.30;;;10.25;67.74
51067;BME280;37112;45.892;-123.962;2023-04-20T01:24:58;102407.45;;;10.26;67.72
51067;BME280;37112;45.892;-123.962;2023-04-20T01:27:25;102405.71;;;10.20;67.27
51067;BME280;37112;45.892;-123.962;2023-04-20T01:30:01;102403.38;;;10.07;66.55
51067;BME280;37112;45.892;-123.962;2023-04-20T01:32:37;102410.44;;;9.94;66.66
51067;BME280;37112;45.892;-123.962;2023-04-20T01:35:12;102405.75;;;9.87;66.76
51067;BME280;37112;45.892;-123.962;2023-04-20T01:37:46;102409.16;;;9.81;66.86
51067;BME280;37112;45.892;-123.962;2023-04-20T01:40:15;102411.67;;;9.81;67.00
51067;BME280;37112;45.892;-123.962;2023-04-20T01:42:49;102416.65;;;9.80;66.47
51067;BME280;37112;45.892;-123.962;2023-04-20T01:45:53;102417.70;;;9.76;66.54
51067;BME280;37112;45.892;-123.962;2023-04-20T01:48:30;102419.82;;;9.71;66.40
51067;BME280;37112;45.892;-123.962;2023-04-20T01:50:57;102417.89;;;9.66;66.48
51067;BME280;37112;45.892;-123.962;2023-04-20T01:53:41;102419.77;;;9.63;66.71
51067;BME280;37112;45.892;-123.962;2023-04-20T01:56:17;102421.23;;;9.57;66.47
51067;BME280;37112;45.892;-123.962;2023-04-20T01:58:44;102424.25;;;9.52;66.78
51067;BME280;37112;45.892;-123.962;2023-04-20T02:01:18;102421.82;;;9.51;66.93
51067;BME280;37112;45.892;-123.962;2023-04-20T02:03:57;102427.18;;;9.44;67.04
51067;BME280;37112;45.892;-123.962;2023-04-20T02:06:23;102429.23;;;9.42;67.38
51067;BME280;37112;45.892;-123.962;2023-04-20T02:08:51;102431.40;;;9.40;67.47
51067;BME280;37112;45.892;-123.962;2023-04-20T02:11:25;102430.83;;;9.37;67.48
51067;BME280;37112;45.892;-123.962;2023-04-20T02:13:50;102428.94;;;9.30;67.44
51067;BME280;37112;45.892;-123.962;2023-04-20T02:16:41;102428.72;;;9.15;67.11
51067;BME280;37112;45.892;-123.962;2023-04-20T02:19:18;102429.95;;;9.00;66.91
51067;BME280;37112;45.892;-123.962;2023-04-20T02:22:01;102428.29;;;8.86;67.34
51067;BME280;37112;45.892;-123.962;2023-04-20T02:24:42;102431.66;;;8.76;67.57
51067;BME280;37112;45.892;-123.962;2023-04-20T02:27:16;102433.39;;;8.72;68.21
51067;BME280;37112;45.892;-123.962;2023-04-20T02:30:14;102439.36;;;8.73;68.96
51067;BME280;37112;45.892;-123.962;2023-04-20T02:33:10;102439.96;;;8.71;69.06
51067;BME280;37112;45.892;-123.962;2023-04-20T02:35:30;102446.52;;;8.70;69.23
51067;BME280;37112;45.892;-123.962;2023-04-20T02:38:07;102445.39;;;8.67;68.62
51067;BME280;37112;45.892;-123.962;2023-04-20T02:40:43;102445.84;;;8.64;68.77
51067;BME280;37112;45.892;-123.962;2023-04-20T02:43:25;102440.48;;;8.59;68.73
51067;BME280;37112;45.892;-123.962;2023-04-20T02:45:50;102441.03;;;8.53;68.55
51067;BME280;37112;45.892;-123.962;2023-04-20T02:48:13;102441.47;;;8.46;67.93
51067;BME280;37112;45.892;-123.962;2023-04-20T02:51:14;102442.29;;;8.36;67.78
51067;BME280;37112;45.892;-123.962;2023-04-20T02:53:42;102441.90;;;8.30;67.55
51067;BME280;37112;45.892;-123.962;2023-04-20T02:56:18;102442.42;;;8.25;67.49
51067;BME280;37112;45.892;-123.962;2023-04-20T03:01:46;102448.89;;;8.16;67.08
51067;BME280;37112;45.892;-123.962;2023-04-20T03:04:27;102451.37;;;8.10;66.92
51067;BME280;37112;45.892;-123.962;2023-04-20T03:06:51;102455.55;;;8.06;66.96
51067;BME280;37112;45.892;-123.962;2023-04-20T03:09:22;102455.80;;;8.04;67.10
51067;BME280;37112;45.892;-123.962;2023-04-20T03:12:09;102461.49;;;8.03;67.21
51067;BME280;37112;45.892;-123.962;2023-04-20T03:15:13;102462.81;;;7.99;67.29
51067;BME280;37112;45.892;-123.962;2023-04-20T03:18:05;102465.44;;;7.95;67.28
51067;BME280;37112;45.892;-123.962;2023-04-20T03:21:04;102474.90;;;7.91;67.43
51067;BME280;37112;45.892;-123.962;2023-04-20T03:23:29;102484.77;;;7.87;67.44
51067;BME280;37112;45.892;-123.962;2023-04-20T03:26:01;102491.92;;;7.83;67.57
51067;BME280;37112;45.892;-123.962;2023-04-20T03:28:39;102491.92;;;7.77;67.59
51067;BME280;37112;45.892;-123.962;2023-04-20T03:31:18;102495.45;;;7.71;67.65
51067;BME280;37112;45.892;-123.962;2023-04-20T03:33:49;102497.40;;;7.65;67.69
51067;BME280;37112;45.892;-123.962;2023-04-20T03:36:23;102499.65;;;7.60;67.95
51067;BME280;37112;45.892;-123.962;2023-04-20T03:39:02;102504.18;;;7.56;68.02
51067;BME280;37112;45.892;-123.962;2023-04-20T03:41:48;102512.26;;;7.51;67.97
51067;BME280;37112;45.892;-123.962;2023-04-20T03:44:22;102514.92;;;7.44;68.08
51067;BME280;37112;45.892;-123.962;2023-04-20T03:46:59;102513.86;;;7.37;68.19
51067;BME280;37112;45.892;-123.962;2023-04-20T03:49:28;102518.91;;;7.33;68.27
51067;BME280;37112;45.892;-123.962;2023-04-20T03:51:46;102516.91;;;7.28;68.45
51067;BME280;37112;45.892;-123.962;2023-04-20T03:54:05;102516.33;;;7.23;68.50
51067;BME280;37112;45.892;-123.962;2023-04-20T03:56:26;102516.98;;;7.18;68.61
51067;BME280;37112;45.892;-123.962;2023-04-20T03:58:45;102514.28;;;7.13;68.83
51067;BME280;37112;45.892;-123.962;2023-04-20T04:01:32;102517.95;;;7.07;68.83
51067;BME280;37112;45.892;-123.962;2023-04-20T04:03:56;102524.30;;;7.01;69.02
51067;BME280;37112;45.892;-123.962;2023-04-20T04:06:31;102527.79;;;6.95;68.90
51067;BME280;37112;45.892;-123.962;2023-04-20T04:08:50;102528.95;;;6.90;69.02
51067;BME280;37112;45.892;-123.962;2023-04-20T04:11:23;102528.23;;;6.84;69.17
51067;BME280;37112;45.892;-123.962;2023-04-20T04:14:00;102538.98;;;6.77;69.16
51067;BME280;37112;45.892;-123.962;2023-04-20T04:16:26;102541.43;;;6.69;69.25
51067;BME280;37112;45.892;-123.962;2023-04-20T04:18:44;102549.13;;;6.65;69.41
51067;BME280;37112;45.892;-123.962;2023-04-20T04:21:07;102550.83;;;6.59;69.54
51067;BME280;37112;45.892;-123.962;2023-04-20T04:23:42;102547.06;;;6.54;69.71
51067;BME280;37112;45.892;-123.962;2023-04-20T04:26:13;102542.83;;;6.46;69.60
51067;BME280;37112;45.892;-123.962;2023-04-20T04:28:28;102545.26;;;6.39;69.71
51067;BME280;37112;45.892;-123.962;2023-04-20T04:30:59;102550.87;;;6.33;69.72
51067;BME280;37112;45.892;-123.962;2023-04-20T04:33:20;102557.67;;;6.27;69.93
51067;BME280;37112;45.892;-123.962;2023-04-20T04:35:36;102563.44;;;6.22;70.23
51067;BME280;37112;45.892;-123.962;2023-04-20T04:38:02;102568.31;;;6.15;70.39
51067;BME280;37112;45.892;-123.962;2023-04-20T04:40:39;102571.38;;;6.12;70.87
51067;BME280;37112;45.892;-123.962;2023-04-20T04:43:11;102565.77;;;6.10;71.02
51067;BME280;37112;45.892;-123.962;2023-04-20T04:45:35;102561.73;;;6.10;71.11
51067;BME280;37112;45.892;-123.962;2023-04-20T04:48:11;102568.61;;;6.10;71.29
51067;BME280;37112;45.892;-123.962;2023-04-20T04:50:44;102566.64;;;6.11;71.67
51067;BME280;37112;45.892;-123.962;2023-04-20T04:53:13;102570.30;;;6.13;71.70
51067;BME280;37112;45.892;-123.962;2023-04-20T04:55:47;102567.49;;;6.12;71.74
51067;BME280;37112;45.892;-123.962;2023-04-20T04:58:21;102563.44;;;6.13;71.81
51067;BME280;37112;45.892;-123.962;2023-04-20T05:00:47;102560.48;;;6.11;71.86
51067;BME280;37112;45.892;-123.962;2023-04-20T05:03:14;102563.36;;;6.08;71.91
51067;BME280;37112;45.892;-123.962;2023-04-20T05:05:48;102563.23;;;6.05;72.02
51067;BME280;37112;45.892;-123.962;2023-04-20T05:08:22;102563.27;;;6.03;72.12
51067;BME280;37112;45.892;-123.962;2023-04-20T05:10:50;102566.34;;;5.99;72.12
51067;BME280;37112;45.892;-123.962;2023-04-20T05:13:25;102564.52;;;5.94;72.16
51067;BME280;37112;45.892;-123.962;2023-04-20T05:15:52;102565.60;;;5.90;72.25
51067;BME280;37112;45.892;-123.962;2023-04-20T05:18:16;102570.08;;;5.86;72.54
51067;BME280;37112;45.892;-123.962;2023-04-20T05:20:41;102575.08;;;5.82;72.60
51067;BME280;37112;45.892;-123.962;2023-04-20T05:22:56;102576.75;;;5.78;72.49
51067;BME280;37112;45.892;-123.962;2023-04-20T05:25:18;102578.23;;;5.73;72.72
51067;BME280;37112;45.892;-123.962;2023-04-20T05:27:41;102580.42;;;5.70;72.85
51067;BME280;37112;45.892;-123.962;2023-04-20T05:30:08;102578.70;;;5.67;72.92
51067;BME280;37112;45.892;-123.962;2023-04-20T05:32:41;102582.30;;;5.64;73.24
51067;BME280;37112;45.892;-123.962;2023-04-20T05:35:18;102584.80;;;5.62;73.39
51067;BME280;37112;45.892;-123.962;2023-04-20T05:37:33;102584.11;;;5.61;73.75
51067;BME280;37112;45.892;-123.962;2023-04-20T05:40:10;102589.92;;;5.61;73.88
51067;BME280;37112;45.892;-123.962;2023-04-20T05:42:45;102595.38;;;5.62;74.19
51067;BME280;37112;45.892;-123.962;2023-04-20T05:45:16;102598.73;;;5.61;74.43
51067;BME280;37112;45.892;-123.962;2023-04-20T05:47:55;102595.39;;;5.61;74.58
51067;BME280;37112;45.892;-123.962;2023-04-20T05:50:19;102592.20;;;5.60;74.66
51067;BME280;37112;45.892;-123.962;2023-04-20T05:52:55;102593.63;;;5.60;74.84
51067;BME280;37112;45.892;-123.962;2023-04-20T05:55:43;102595.63;;;5.57;74.67
51067;BME280;37112;45.892;-123.962;2023-04-20T05:58:18;102600.61;;;5.54;74.82
51067;BME280;37112;45.892;-123.962;2023-04-20T06:00:56;102600.27;;;5.52;74.87
51067;BME280;37112;45.892;-123.962;2023-04-20T06:03:29;102601.79;;;5.47;74.82
51067;BME280;37112;45.892;-123.962;2023-04-20T06:06:05;102603.24;;;5.43;74.95
51067;BME280;37112;45.892;-123.962;2023-04-20T06:08:41;102608.77;;;5.40;75.00
51067;BME280;37112;45.892;-123.962;2023-04-20T06:11:30;102611.44;;;5.37;75.20
51067;BME280;37112;45.892;-123.962;2023-04-20T06:13:54;102611.17;;;5.32;75.23
51067;BME280;37112;45.892;-123.962;2023-04-20T06:16:30;102614.23;;;5.28;75.43
51067;BME280;37112;45.892;-123.962;2023-04-20T06:19:05;102615.32;;;5.25;75.39
51067;BME280;37112;45.892;-123.962;2023-04-20T06:21:40;102620.13;;;5.23;75.53
51067;BME280;37112;45.892;-123.962;2023-04-20T06:24:02;102622.79;;;5.20;75.71
51067;BME280;37112;45.892;-123.962;2023-04-20T06:26:35;102621.27;;;5.16;75.57
51067;BME280;37112;45.892;-123.962;2023-04-20T06:29:09;102627.65;;;5.14;75.86
51067;BME280;37112;45.892;-123.962;2023-04-20T06:31:43;102633.82;;;5.13;76.04
51067;BME280;37112;45.892;-123.962;2023-04-20T06:34:10;102626.08;;;5.12;76.20
51067;BME280;37112;45.892;-123.962;2023-04-20T06:36:46;102627.34;;;5.11;76.31
51067;BME280;37112;45.892;-123.962;2023-04-20T06:39:21;102621.21;;;5.09;76.32
51067;BME280;37112;45.892;-123.962;2023-04-20T06:41:41;102622.83;;;5.05;76.46
51067;BME280;37112;45.892;-123.962;2023-04-20T06:44:07;102627.80;;;5.03;76.42
51067;BME280;37112;45.892;-123.962;2023-04-20T06:46:41;102629.79;;;5.00;76.65
51067;BME280;37112;45.892;-123.962;2023-04-20T06:49:17;102635.27;;;4.96;76.73
51067;BME280;37112;45.892;-123.962;2023-04-20T06:51:50;102636.05;;;4.93;76.54
51067;BME280;37112;45.892;-123.962;2023-04-20T06:54:26;102635.55;;;4.89;76.61
51067;BME280;37112;45.892;-123.962;2023-04-20T06:56:59;102639.81;;;4.87;76.83
51067;BME280;37112;45.892;-123.962;2023-04-20T06:59:26;102635.63;;;4.83;76.88
51067;BME280;37112;45.892;-123.962;2023-04-20T07:02:01;102641.30;;;4.80;76.96
51067;BME280;37112;45.892;-123.962;2023-04-20T07:04:35;102639.05;;;4.78;77.10
51067;BME280;37112;45.892;-123.962;2023-04-20T07:07:07;102642.42;;;4.76;77.16
51067;BME280;37112;45.892;-123.962;2023-04-20T07:09:41;102641.22;;;4.72;77.04
51067;BME280;37112;45.892;-123.962;2023-04-20T07:12:14;102640.21;;;4.70;77.16
51067;BME280;37112;45.892;-123.962;2023-04-20T07:14:48;102641.83;;;4.66;77.16
51067;BME280;37112;45.892;-123.962;2023-04-20T07:17:15;102641.89;;;4.62;77.10
51067;BME280;37112;45.892;-123.962;2023-04-20T07:19:42;102640.69;;;4.60;77.23
51067;BME280;37112;45.892;-123.962;2023-04-20T07:22:11;102645.81;;;4.57;77.24
51067;BME280;37112;45.892;-123.962;2023-04-20T07:24:33;102644.30;;;4.52;77.17
51067;BME280;37112;45.892;-123.962;2023-04-20T07:27:07;102649.07;;;4.49;77.33
51067;BME280;37112;45.892;-123.962;2023-04-20T07:29:41;102652.27;;;4.47;77.56
51067;BME280;37112;45.892;-123.962;2023-04-20T07:32:04;102653.88;;;4.44;77.44
51067;BME280;37112;45.892;-123.962;2023-04-20T07:34:40;102653.42;;;4.39;77.49
51067;BME280;37112;45.892;-123.962;2023-04-20T07:37:16;102653.27;;;4.37;77.74
51067;BME280;37112;45.892;-123.962;2023-04-20T07:39:50;102660.67;;;4.35;77.66
51067;BME280;37112;45.892;-123.962;2023-04-20T07:42:26;102660.17;;;4.31;77.76
51067;BME280;37112;45.892;-123.962;2023-04-20T07:44:48;102660.56;;;4.29;77.83
51067;BME280;37112;45.892;-123.962;2023-04-20T07:47:22;102663.73;;;4.29;77.89
51067;BME280;37112;45.892;-123.962;2023-04-20T07:49:58;102661.98;;;4.26;77.93
51067;BME280;37112;45.892;-123.962;2023-04-20T07:52:25;102664.10;;;4.25;78.11
51067;BME280;37112;45.892;-123.962;2023-04-20T07:54:59;102664.08;;;4.27;78.43
51067;BME280;37112;45.892;-123.962;2023-04-20T07:57:33;102667.94;;;4.27;78.52
51067;BME280;37112;45.892;-123.962;2023-04-20T08:00:00;102672.70;;;4.28;78.67
51067;BME280;37112;45.892;-123.962;2023-04-20T08:02:35;102673.20;;;4.31;78.81
51067;BME280;37112;45.892;-123.962;2023-04-20T08:05:09;102669.13;;;4.32;78.96
51067;BME280;37112;45.892;-123.962;2023-04-20T08:07:36;102672.96;;;4.34;78.96
51067;BME280;37112;45.892;-123.962;2023-04-20T08:10:01;102673.84;;;4.37;79.07
51067;BME280;37112;45.892;-123.962;2023-04-20T08:12:35;102673.45;;;4.40;79.24
51067;BME280;37112;45.892;-123.962;2023-04-20T08:14:58;102673.45;;;4.40;79.15
51067;BME280;37112;45.892;-123.962;2023-04-20T08:17:38;102670.13;;;4.39;78.94
51067;BME280;37112;45.892;-123.962;2023-04-20T08:20:12;102666.29;;;4.37;79.09
51067;BME280;37112;45.892;-123.962;2023-04-20T08:22:46;102671.04;;;4.37;79.15
51067;BME280;37112;45.892;-123.962;2023-04-20T08:25:35;102671.73;;;4.37;79.26
51067;BME280;37112;45.892;-123.962;2023-04-20T08:28:10;102664.16;;;4.37;79.38
51067;BME280;37112;45.892;-123.962;2023-04-20T08:31:01;102663.28;;;4.38;79.43
51067;BME280;37112;45.892;-123.962;2023-04-20T08:33:23;102656.26;;;4.38;79.39
51067;BME280;37112;45.892;-123.962;2023-04-20T08:35:57;102655.70;;;4.39;79.65
51067;BME280;37112;45.892;-123.962;2023-04-20T08:38:29;102653.61;;;4.38;79.26
51067;BME280;37112;45.892;-123.962;2023-04-20T08:40:56;102653.80;;;4.36;79.40
51067;BME280;37112;45.892;-123.962;2023-04-20T08:43:30;102649.75;;;4.37;79.56
51067;BME280;37112;45.892;-123.962;2023-04-20T08:46:04;102650.31;;;4.33;79.14
51067;BME280;37112;45.892;-123.962;2023-04-20T08:48:41;102650.19;;;4.28;79.22
51067;BME280;37112;45.892;-123.962;2023-04-20T08:51:13;102650.20;;;4.26;79.27
51067;BME280;37112;45.892;-123.962;2023-04-20T08:53:40;102650.05;;;4.24;79.40
51067;BME280;37112;45.892;-123.962;2023-04-20T08:56:13;102648.51;;;4.22;79.43
51067;BME280;37112;45.892;-123.962;2023-04-20T08:58:46;102652.73;;;4.19;79.59
51067;BME280;37112;45.892;-123.962;2023-04-20T09:01:28;102651.66;;;4.20;79.64
51067;BME280;37112;45.892;-123.962;2023-04-20T09:04:17;102650.09;;;4.19;79.67
51067;BME280;37112;45.892;-123.962;2023-04-20T09:06:50;102653.64;;;4.17;79.57
51067;BME280;37112;45.892;-123.962;2023-04-20T09:09:25;102655.08;;;4.14;79.50
51067;BME280;37112;45.892;-123.962;2023-04-20T09:12:05;102652.10;;;4.13;79.63
51067;BME280;37112;45.892;-123.962;2023-04-20T09:14:44;102655.09;;;4.12;79.69
51067;BME280;37112;45.892;-123.962;2023-04-20T09:17:29;102653.52;;;4.10;79.68
51067;BME280;37112;45.892;-123.962;2023-04-20T09:20:03;102651.80;;;4.08;79.63
51067;BME280;37112;45.892;-123.962;2023-04-20T09:22:49;102650.60;;;4.05;79.70
51067;BME280;37112;45.892;-123.962;2023-04-20T09:25:19;102650.42;;;4.03;79.89
51067;BME280;37112;45.892;-123.962;2023-04-20T09:28:00;102646.55;;;4.03;79.94
51067;BME280;37112;45.892;-123.962;2023-04-20T09:30:49;102642.16;;;4.03;80.03
51067;BME280;37112;45.892;-123.962;2023-04-20T09:33:36;102640.64;;;3.99;79.79
51067;BME280;37112;45.892;-123.962;2023-04-20T09:36:12;102642.06;;;3.98;79.92
51067;BME280;37112;45.892;-123.962;2023-04-20T09:38:47;102634.32;;;3.97;79.97
51067;BME280;37112;45.892;-123.962;2023-04-20T09:41:21;102634.32;;;3.97;80.17
51067;BME280;37112;45.892;-123.962;2023-04-20T09:43:47;102633.61;;;3.97;80.12
51067;BME280;37112;45.892;-123.962;2023-04-20T09:46:21;102632.40;;;3.95;80.21
51067;BME280;37112;45.892;-123.962;2023-04-20T09:48:46;102634.33;;;3.97;80.60
51067;BME280;37112;45.892;-123.962;2023-04-20T09:51:20;102637.65;;;3.99;80.66
51067;BME280;37112;45.892;-123.962;2023-04-20T09:53:55;102635.52;;;4.01;80.71
51067;BME280;37112;45.892;-123.962;2023-04-20T09:56:21;102640.42;;;4.02;80.83
51067;BME280;37112;45.892;-123.962;2023-04-20T09:58:44;102638.33;;;4.01;80.85
51067;BME280;37112;45.892;-123.962;2023-04-20T10:01:20;102637.42;;;4.03;81.05
51067;BME280;37112;45.892;-123.962;2023-04-20T10:03:55;102645.84;;;4.07;81.27
51067;BME280;37112;45.892;-123.962;2023-04-20T10:06:32;102645.63;;;4.09;81.20
51067;BME280;37112;45.892;-123.962;2023-04-20T10:09:19;102641.92;;;4.09;81.20
51067;BME280;37112;45.892;-123.962;2023-04-20T10:11:45;102640.33;;;4.11;81.18
51067;BME280;37112;45.892;-123.962;2023-04-20T10:14:25;102642.42;;;4.12;81.28
51067;BME280;37112;45.892;-123.962;2023-04-20T10:17:07;102640.68;;;4.13;81.27
51067;BME280;37112;45.892;-123.962;2023-04-20T10:19:44;102637.66;;;4.15;81.49
51067;BME280;37112;45.892;-123.962;2023-04-20T10:22:27;102640.77;;;4.19;81.70
51067;BME280;37112;45.892;-123.962;2023-04-20T10:25:13;102636.20;;;4.22;81.61
51067;BME280;37112;45.892;-123.962;2023-04-20T10:28:00;102630.02;;;4.23;81.62
51067;BME280;37112;45.892;-123.962;2023-04-20T10:30:25;102622.80;;;4.24;81.57
51067;BME280;37112;45.892;-123.962;2023-04-20T10:33:10;102621.94;;;4.23;81.70
51067;BME280;37112;45.892;-123.962;2023-04-20T10:35:49;102612.27;;;4.23;81.54
51067;BME280;37112;45.892;-123.962;2023-04-20T10:38:35;102607.36;;;4.21;81.65
51067;BME280;37112;45.892;-123.962;2023-04-20T10:41:12;102603.66;;;4.19;81.49
51067;BME280;37112;45.892;-123.962;2023-04-20T10:43:47;102605.27;;;4.18;81.34
51067;BME280;37112;45.892;-123.962;2023-04-20T10:46:21;102605.80;;;4.18;81.58
51067;BME280;37112;45.892;-123.962;2023-04-20T10:49:05;102603.00;;;4.17;81.78
51067;BME280;37112;45.892;-123.962;2023-04-20T10:51:44;102610.19;;;4.18;81.70
51067;BME280;37112;45.892;-123.962;2023-04-20T10:54:19;102607.36;;;4.20;82.06
51067;BME280;37112;45.892;-123.962;2023-04-20T10:56:54;102610.14;;;4.24;82.21
51067;BME280;37112;45.892;-123.962;2023-04-20T10:59:30;102605.52;;;4.28;82.27
51067;BME280;37112;45.892;-123.962;2023-04-20T11:01:57;102598.44;;;4.32;82.46
51067;BME280;37112;45.892;-123.962;2023-04-20T11:04:35;102603.49;;;4.36;82.53
51067;BME280;37112;45.892;-123.962;2023-04-20T11:07:08;102602.73;;;4.41;82.58
51067;BME280;37112;45.892;-123.962;2023-04-20T11:09:44;102601.28;;;4.45;82.61
51067;BME280;37112;45.892;-123.962;2023-04-20T11:12:18;102602.27;;;4.50;82.59
51067;BME280;37112;45.892;-123.962;2023-04-20T11:14:49;102596.45;;;4.53;82.49
51067;BME280;37112;45.892;-123.962;2023-04-20T11:17:33;102591.46;;;4.56;82.49
51067;BME280;37112;45.892;-123.962;2023-04-20T11:20:13;102585.09;;;4.59;82.42
51067;BME280;37112;45.892;-123.962;2023-04-20T11:22:57;102588.05;;;4.62;82.50
51067;BME280;37112;45.892;-123.962;2023-04-20T11:25:23;102586.41;;;4.65;82.32
51067;BME280;37112;45.892;-123.962;2023-04-20T11:28:06;102587.29;;;4.67;82.40
51067;BME280;37112;45.892;-123.962;2023-04-20T11:30:43;102585.83;;;4.70;82.20
51067;BME280;37112;45.892;-123.962;2023-04-20T11:33:27;102585.44;;;4.72;82.25
51067;BME280;37112;45.892;-123.962;2023-04-20T11:36:02;102587.70;;;4.74;82.13
51067;BME280;37112;45.892;-123.962;2023-04-20T11:38:27;102591.55;;;4.77;82.07
51067;BME280;37112;45.892;-123.962;2023-04-20T11:40:54;102587.67;;;4.78;82.09
51067;BME280;37112;45.892;-123.962;2023-04-20T11:43:34;102580.77;;;4.80;81.80
51067;BME280;37112;45.892;-123.962;2023-04-20T11:45:57;102579.36;;;4.80;81.82
51067;BME280;37112;45.892;-123.962;2023-04-20T11:48:31;102582.89;;;4.79;81.56
51067;BME280;37112;45.892;-123.962;2023-04-20T11:51:04;102580.95;;;4.79;81.58
51067;BME280;37112;45.892;-123.962;2023-04-20T11:53:27;102581.64;;;4.80;81.77
51067;BME280;37112;45.892;-123.962;2023-04-20T11:56:00;102573.36;;;4.83;81.68
51067;BME280;37112;45.892;-123.962;2023-04-20T11:58:34;102570.17;;;4.84;81.55
51067;BME280;37112;45.892;-123.962;2023-04-20T12:01:08;102564.89;;;4.83;81.26
51067;BME280;37112;45.892;-123.962;2023-04-20T12:03:46;102561.20;;;4.83;81.19
51067;BME280;37112;45.892;-123.962;2023-04-20T12:06:21;102557.31;;;4.84;81.28
51067;BME280;37112;45.892;-123.962;2023-04-20T12:08:54;102555.70;;;4.86;81.31
51067;BME280;37112;45.892;-123.962;2023-04-20T12:11:27;102555.83;;;4.88;81.46
51067;BME280;37112;45.892;-123.962;2023-04-20T12:13:50;102552.81;;;4.90;81.41
51067;BME280;37112;45.892;-123.962;2023-04-20T12:16:25;102550.83;;;4.93;81.34
51067;BME280;37112;45.892;-123.962;2023-04-20T12:18:49;102550.60;;;4.96;81.42
51067;BME280;37112;45.892;-123.962;2023-04-20T12:21:23;102548.46;;;4.99;81.37
51067;BME280;37112;45.892;-123.962;2023-04-20T12:23:49;102539.61;;;5.01;81.23
51067;BME280;37112;45.892;-123.962;2023-04-20T12:26:16;102537.50;;;5.02;81.01
51067;BME280;37112;45.892;-123.962;2023-04-20T12:28:52;102534.45;;;5.05;81.10
51067;BME280;37112;45.892;-123.962;2023-04-20T12:31:26;102531.77;;;5.08;80.98
51067;BME280;37112;45.892;-123.962;2023-04-20T12:34:01;102535.98;;;5.09;80.78
51067;BME280;37112;45.892;-123.962;2023-04-20T12:36:35;102536.82;;;5.11;80.82
51067;BME280;37112;45.892;-123.962;2023-04-20T12:39:09;102535.38;;;5.14;80.73
51067;BME280;37112;45.892;-123.962;2023-04-20T12:41:44;102527.78;;;5.16;80.71
51067;BME280;37112;45.892;-123.962;2023-04-20T12:44:11;102530.02;;;5.19;80.50
51067;BME280;37112;45.892;-123.962;2023-04-20T12:46:37;102530.85;;;5.22;80.47
51067;BME280;37112;45.892;-123.962;2023-04-20T12:49:07;102522.89;;;5.23;80.38
51067;BME280;37112;45.892;-123.962;2023-04-20T12:51:41;102515.29;;;5.25;80.08
51067;BME280;37112;45.892;-123.962;2023-04-20T12:54:01;102512.64;;;5.25;80.07
51067;BME280;37112;45.892;-123.962;2023-04-20T12:56:36;102505.75;;;5.26;79.90
51067;BME280;37112;45.892;-123.962;2023-04-20T12:59:10;102498.16;;;5.27;79.85
51067;BME280;37112;45.892;-123.962;2023-04-20T13:01:45;102497.79;;;5.28;79.62
51067;BME280;37112;45.892;-123.962;2023-04-20T13:04:19;102497.98;;;5.28;79.54
51067;BME280;37112;45.892;-123.962;2023-04-20T13:06:54;102493.74;;;5.29;79.66
51067;BME280;37112;45.892;-123.962;2023-04-20T13:09:28;102481.40;;;5.30;79.48
51067;BME280;37112;45.892;-123.962;2023-04-20T13:12:02;102473.98;;;5.31;79.32
51067;BME280;37112;45.892;-123.962;2023-04-20T13:14:28;102466.92;;;5.32;79.42
51067;BME280;37112;45.892;-123.962;2023-04-20T13:17:02;102471.10;;;5.34;79.16